createdAt,value
2022-11-20T00:00:54.707Z,101616.44
2022-11-20T00:03:21.433Z,101617.38
2022-11-20T00:05:47.753Z,101618.31
2022-11-20T00:08:14.138Z,101608.88
2022-11-20T00:10:41.216Z,101606.28
2022-11-20T00:13:08.539Z,101612.31
2022-11-20T00:15:35.125Z,101606.31
2022-11-20T00:18:01.640Z,101598.69
2022-11-20T00:20:27.996Z,101603.03
2022-11-20T00:22:54.374Z,101604.81
2022-11-20T00:25:20.721Z,101603.13
2022-11-20T00:27:47.071Z,101596.94
2022-11-20T00:30:15.070Z,101606.22
2022-11-20T00:32:41.723Z,101599.38
2022-11-20T00:35:08.279Z,101602.84
2022-11-20T00:37:34.596Z,101600.34
2022-11-20T00:40:00.954Z,101602.75
2022-11-20T00:42:27.391Z,101593.94
2022-11-20T00:44:53.802Z,101592.91
2022-11-20T00:47:20.130Z,101597.06
2022-11-20T00:49:46.466Z,101598.91
2022-11-20T00:52:12.789Z,101593.13
2022-11-20T00:54:39.165Z,101590.72
2022-11-20T00:57:05.639Z,101588.25
2022-11-20T00:59:31.992Z,101584.00
2022-11-20T01:01:58.350Z,101578.91
2022-11-20T01:04:24.646Z,101580.69
2022-11-20T01:06:51.010Z,101586.72
2022-11-20T01:09:17.317Z,101572.97
2022-11-20T01:11:45.091Z,101576.53
2022-11-20T01:14:15.012Z,101573.16
2022-11-20T01:16:47.004Z,101582.63
2022-11-20T01:19:18.109Z,101582.72
2022-11-20T01:21:46.967Z,101580.19
2022-11-20T01:24:16.236Z,101564.75
2022-11-20T01:26:44.846Z,101565.38
2022-11-20T01:29:17.427Z,101567.97
2022-11-20T01:31:44.419Z,101568.94
2022-11-20T01:34:14.462Z,101570.78
2022-11-20T01:36:42.335Z,101570.00
2022-11-20T01:39:13.217Z,101566.59
2022-11-20T01:41:58.997Z,101569.25
2022-11-20T01:44:51.838Z,101564.16
2022-11-20T01:47:44.990Z,101564.94
2022-11-20T01:50:25.966Z,101568.31
2022-11-20T01:53:03.402Z,101573.50
2022-11-20T01:55:35.609Z,101562.34
2022-11-20T01:58:03.514Z,101559.75
2022-11-20T02:00:29.872Z,101555.50
2022-11-20T02:02:59.533Z,101565.91
2022-11-20T02:05:37.929Z,101563.41
2022-11-20T02:08:07.146Z,101561.72
2022-11-20T02:10:34.358Z,101559.19
2022-11-20T02:13:19.177Z,101561.88
2022-11-20T02:15:46.268Z,101554.19
2022-11-20T02:18:16.948Z,101559.41
2022-11-20T02:20:46.129Z,101556.03
2022-11-20T02:23:34.229Z,101556.03
2022-11-20T02:26:04.037Z,101564.63
2022-11-20T02:28:30.486Z,101563.75
2022-11-20T02:30:56.835Z,101559.44
2022-11-20T02:33:23.240Z,101549.03
2022-11-20T02:35:49.640Z,101541.06
2022-11-20T02:38:16.327Z,101549.25
2022-11-20T02:40:43.158Z,101533.44
2022-11-20T02:43:10.338Z,101538.81
2022-11-20T02:45:37.047Z,101535.47
2022-11-20T02:48:03.517Z,101533.84
2022-11-20T02:50:29.831Z,101541.50
2022-11-20T02:52:56.209Z,101532.00
2022-11-20T02:55:22.581Z,101538.91
2022-11-20T02:57:48.985Z,101538.88
2022-11-20T03:00:15.556Z,101524.31
2022-11-20T03:02:41.945Z,101527.78
2022-11-20T03:05:08.473Z,101526.06
2022-11-20T03:07:34.910Z,101521.56
2022-11-20T03:10:01.273Z,101507.72
2022-11-20T03:12:27.573Z,101511.09
2022-11-20T03:14:53.886Z,101509.47
2022-11-20T03:17:20.593Z,101513.16
2022-11-20T03:19:47.022Z,101518.44
2022-11-20T03:22:13.412Z,101517.63
2022-11-20T03:24:39.751Z,101516.81
2022-11-20T03:27:06.110Z,101510.06
2022-11-20T03:29:33.327Z,101512.66
2022-11-20T03:32:00.095Z,101511.03
2022-11-20T03:34:26.489Z,101508.53
2022-11-20T03:36:52.871Z,101504.31
2022-11-20T03:39:19.549Z,101500.91
2022-11-20T03:41:46.194Z,101506.06
2022-11-20T03:44:13.156Z,101509.56
2022-11-20T03:46:40.088Z,101501.84
2022-11-20T03:49:06.628Z,101491.56
2022-11-20T03:51:35.250Z,101493.13
2022-11-20T03:54:04.769Z,101499.97
2022-11-20T03:56:33.814Z,101496.50
2022-11-20T03:59:00.681Z,101498.16
2022-11-20T04:01:30.415Z,101504.16
2022-11-20T04:03:57.914Z,101499.91
2022-11-20T04:06:27.760Z,101498.31
2022-11-20T04:08:58.858Z,101493.25
2022-11-20T04:11:30.400Z,101487.31
2022-11-20T04:14:01.998Z,101477.91
2022-11-20T04:16:31.869Z,101483.91
2022-11-20T04:19:00.334Z,101476.19
2022-11-20T04:21:27.511Z,101485.63
2022-11-20T04:23:55.120Z,101473.63
2022-11-20T04:26:23.246Z,101475.34
2022-11-20T04:28:49.588Z,101478.75
2022-11-20T04:31:19.182Z,101480.47
2022-11-20T04:33:45.874Z,101484.91
2022-11-20T04:36:20.846Z,101480.69
2022-11-20T04:38:56.347Z,101478.13
2022-11-20T04:41:28.897Z,101472.19
2022-11-20T04:44:00.748Z,101466.22
2022-11-20T04:46:28.327Z,101469.63
2022-11-20T04:48:54.686Z,101464.47
2022-11-20T04:51:21.097Z,101454.13
2022-11-20T04:53:47.569Z,101467.78
2022-11-20T04:56:14.693Z,101456.69
2022-11-20T04:58:41.064Z,101455.88
2022-11-20T05:01:09.951Z,101448.19
2022-11-20T05:03:41.012Z,101450.75
2022-11-20T05:06:09.950Z,101450.75
2022-11-20T05:08:36.293Z,101448.06
2022-11-20T05:11:08.725Z,101454.13
2022-11-20T05:13:35.315Z,101452.50
2022-11-20T05:16:06.688Z,101454.28
2022-11-20T05:18:34.526Z,101447.41
2022-11-20T05:21:01.461Z,101452.63
2022-11-20T05:23:28.447Z,101451.81
2022-11-20T05:25:59.197Z,101447.50
2022-11-20T05:28:27.434Z,101432.09
2022-11-20T05:30:53.918Z,101427.75
2022-11-20T05:33:20.460Z,101423.44
2022-11-20T05:35:47.014Z,101427.69
2022-11-20T05:38:13.438Z,101424.34
2022-11-20T05:40:39.843Z,101415.00
2022-11-20T05:43:06.175Z,101412.44
2022-11-20T05:45:32.612Z,101409.03
2022-11-20T05:48:01.089Z,101413.28
2022-11-20T05:50:28.710Z,101426.06
2022-11-20T05:52:55.117Z,101424.41
2022-11-20T05:55:21.458Z,101433.84
2022-11-20T05:57:47.780Z,101434.75
2022-11-20T06:00:14.654Z,101441.66
2022-11-20T06:02:41.058Z,101442.53
2022-11-20T06:05:07.785Z,101439.09
2022-11-20T06:07:34.381Z,101446.00
2022-11-20T06:10:00.775Z,101446.03
2022-11-20T06:12:27.209Z,101456.31
2022-11-20T06:14:53.581Z,101464.88
2022-11-20T06:17:19.893Z,101461.44
2022-11-20T06:19:46.181Z,101458.03
2022-11-20T06:22:12.604Z,101457.19
2022-11-20T06:24:38.910Z,101464.94
2022-11-20T06:27:05.246Z,101465.75
2022-11-20T06:29:34.041Z,101467.44
2022-11-20T06:32:00.860Z,101452.03
2022-11-20T06:34:27.259Z,101454.53
2022-11-20T06:36:53.706Z,101451.97
2022-11-20T06:39:20.545Z,101453.72
2022-11-20T06:41:47.159Z,101454.66
2022-11-20T06:44:13.521Z,101466.63
2022-11-20T06:46:39.822Z,101463.19
2022-11-20T06:49:06.836Z,101461.53
2022-11-20T06:51:33.241Z,101457.25
2022-11-20T06:53:59.633Z,101468.31
2022-11-20T06:56:25.961Z,101456.31
2022-11-20T06:58:52.354Z,101450.28
2022-11-20T07:01:18.784Z,101443.41
2022-11-20T07:03:47.068Z,101439.94
2022-11-20T07:06:15.304Z,101437.28
2022-11-20T07:08:41.628Z,101442.38
2022-11-20T07:11:09.128Z,101444.91
2022-11-20T07:13:35.679Z,101439.75
2022-11-20T07:16:03.994Z,101433.81
2022-11-20T07:18:30.500Z,101437.22
2022-11-20T07:20:57.041Z,101428.66
2022-11-20T07:23:23.488Z,101433.81
2022-11-20T07:25:49.788Z,101434.59
2022-11-20T07:28:16.183Z,101437.13
2022-11-20T07:30:42.547Z,101431.94
2022-11-20T07:33:08.848Z,101431.88
2022-11-20T07:35:35.229Z,101430.03
2022-11-20T07:38:01.601Z,101426.59
2022-11-20T07:40:28.066Z,101411.94
2022-11-20T07:42:56.099Z,101416.13
2022-11-20T07:45:24.844Z,101419.41
2022-11-20T07:47:52.154Z,101418.38
2022-11-20T07:50:19.275Z,101424.25
2022-11-20T07:52:45.688Z,101422.38
2022-11-20T07:55:12.486Z,101423.81
2022-11-20T07:57:39.011Z,101425.25
2022-11-20T08:00:09.884Z,101429.38
2022-11-20T08:02:40.325Z,101426.78
2022-11-20T08:05:07.521Z,101431.81
2022-11-20T08:07:38.748Z,101430.94
2022-11-20T08:10:05.707Z,101416.91
2022-11-20T08:12:50.568Z,101413.25
2022-11-20T08:15:16.969Z,101401.97
2022-11-20T08:17:56.737Z,101399.22
2022-11-20T08:20:29.917Z,101410.94
2022-11-20T08:23:04.391Z,101406.31
2022-11-20T08:25:31.847Z,101394.84
2022-11-20T08:28:00.598Z,101403.50
2022-11-20T08:30:28.532Z,101395.78
2022-11-20T08:32:55.782Z,101395.31
2022-11-20T08:35:22.847Z,101398.72
2022-11-20T08:37:49.791Z,101398.59
2022-11-20T08:40:19.565Z,101407.09
2022-11-20T08:42:51.630Z,101405.47
2022-11-20T08:45:19.602Z,101402.63
2022-11-20T08:47:46.571Z,101404.97
2022-11-20T08:50:15.160Z,101390.22
2022-11-20T08:52:41.539Z,101392.81
2022-11-20T08:55:09.019Z,101397.03
2022-11-20T08:57:36.781Z,101388.41
2022-11-20T09:00:06.993Z,101386.56
2022-11-20T09:02:33.667Z,101394.31
2022-11-20T09:05:00.031Z,101383.19
2022-11-20T09:07:26.379Z,101390.75
2022-11-20T09:12:39.051Z,101382.72
2022-11-20T09:15:05.821Z,101386.91
2022-11-20T09:17:32.141Z,101380.81
2022-11-20T09:19:58.734Z,101384.09
2022-11-20T09:22:25.091Z,101375.28
2022-11-20T09:24:51.397Z,101372.44
2022-11-20T09:27:22.462Z,101370.38
2022-11-20T09:29:48.868Z,101357.88
2022-11-20T09:32:15.249Z,101355.13
2022-11-20T09:34:41.597Z,101346.06
2022-11-20T09:37:08.032Z,101336.13
2022-11-20T09:39:35.335Z,101342.72
2022-11-20T09:42:21.317Z,101336.31
2022-11-20T09:45:29.685Z,101330.47
2022-11-20T09:47:56.002Z,101331.69
2022-11-20T09:50:42.737Z,101322.63
2022-11-20T09:53:14.501Z,101322.44
2022-11-20T09:55:41.083Z,101321.00
2022-11-20T09:58:13.839Z,101323.81
2022-11-20T10:00:40.540Z,101318.41
2022-11-20T10:03:36.922Z,101324.09
2022-11-20T10:06:06.085Z,101313.72
2022-11-20T10:08:44.086Z,101307.78
2022-11-20T10:11:22.489Z,101301.91
2022-11-20T10:14:17.489Z,101301.38
2022-11-20T10:16:52.702Z,101295.06
2022-11-20T10:19:40.403Z,101288.72
2022-11-20T10:22:32.036Z,101287.78
2022-11-20T10:25:20.430Z,101282.91
2022-11-20T10:28:07.427Z,101273.69
2022-11-20T10:30:38.862Z,101270.31
2022-11-20T10:33:14.641Z,101269.81
2022-11-20T10:35:51.736Z,101262.78
2022-11-20T10:38:22.620Z,101252.97
2022-11-20T10:41:25.893Z,101250.13
2022-11-20T10:44:04.504Z,101253.31
2022-11-20T10:46:41.166Z,101250.97
2022-11-20T10:49:15.147Z,101246.59
2022-11-20T10:52:19.051Z,101240.56
2022-11-20T10:54:59.842Z,101226.84
2022-11-20T10:57:47.136Z,101216.78
2022-11-20T11:00:14.793Z,101212.13
2022-11-20T11:02:52.503Z,101214.59
2022-11-20T11:05:41.227Z,101218.88
2022-11-20T11:08:17.667Z,101209.78
2022-11-20T11:10:51.517Z,101202.88
2022-11-20T11:13:23.050Z,101204.63
2022-11-20T11:15:49.772Z,101193.84
2022-11-20T11:18:29.359Z,101194.47
2022-11-20T11:20:57.156Z,101188.69
2022-11-20T11:23:37.179Z,101184.91
2022-11-20T11:26:06.720Z,101172.59
2022-11-20T11:28:34.191Z,101169.59
2022-11-20T11:31:00.669Z,101154.91
2022-11-20T11:33:32.234Z,101156.59
2022-11-20T11:36:17.693Z,101145.09
2022-11-20T11:38:45.461Z,101138.56
2022-11-20T11:41:23.533Z,101132.16
2022-11-20T11:44:17.855Z,101129.63
2022-11-20T11:46:57.193Z,101121.66
2022-11-20T11:49:24.955Z,101125.00
2022-11-20T11:52:00.282Z,101131.88
2022-11-20T11:54:32.380Z,101120.50
2022-11-20T11:57:02.849Z,101104.56
2022-11-20T11:59:47.896Z,101106.09
2022-11-20T12:02:30.015Z,101114.06
2022-11-20T12:05:24.306Z,101097.47
2022-11-20T12:07:57.493Z,101102.38
2022-11-20T12:10:39.170Z,101084.72
2022-11-20T12:13:15.555Z,101074.78
2022-11-20T12:15:46.326Z,101067.31
2022-11-20T12:18:19.102Z,101081.94
2022-11-20T12:21:08.085Z,101070.69
2022-11-20T12:24:00.917Z,101068.56
2022-11-20T12:26:48.117Z,101076.13
2022-11-20T12:29:40.661Z,101066.56
2022-11-20T12:32:34.773Z,101071.47
2022-11-20T12:35:13.249Z,101066.34
2022-11-20T12:37:58.634Z,101061.63
2022-11-20T12:40:46.179Z,101056.63
2022-11-20T12:43:42.247Z,101047.91
2022-11-20T12:46:19.173Z,101048.06
2022-11-20T12:48:55.813Z,101035.94
2022-11-20T12:51:43.414Z,101034.34
2022-11-20T12:54:25.460Z,101018.91
2022-11-20T12:57:30.605Z,100990.97
2022-11-20T13:00:17.855Z,100999.69
2022-11-20T13:03:20.101Z,100989.47
2022-11-20T13:06:06.691Z,100975.34
2022-11-20T13:08:36.958Z,100971.53
2022-11-20T13:11:15.299Z,100974.75
2022-11-20T13:13:59.093Z,100973.06
2022-11-20T13:16:37.369Z,100967.13
2022-11-20T13:19:05.536Z,100962.66
2022-11-20T13:21:44.766Z,100954.78
2022-11-20T13:24:20.669Z,100940.84
2022-11-20T13:26:47.691Z,100947.06
2022-11-20T13:29:19.152Z,100943.34
2022-11-20T13:31:47.948Z,100942.59
2022-11-20T13:34:25.500Z,100938.31
2022-11-20T13:36:54.521Z,100937.47
2022-11-20T13:39:35.508Z,100947.06
2022-11-20T13:42:19.659Z,100944.28
2022-11-20T13:44:52.099Z,100941.84
2022-11-20T13:47:24.531Z,100933.13
2022-11-20T13:49:52.876Z,100915.66
2022-11-20T13:53:00.093Z,100917.34
2022-11-20T13:55:43.658Z,100900.03
2022-11-20T13:58:32.858Z,100907.84
2022-11-20T14:01:09.022Z,100904.41
2022-11-20T14:04:05.734Z,100910.63
2022-11-20T14:06:29.729Z,100917.81
2022-11-20T14:08:56.866Z,100910.94
2022-11-20T14:11:31.001Z,100910.00
2022-11-20T14:14:14.001Z,100904.81
2022-11-20T14:16:40.574Z,100885.06
2022-11-20T14:19:25.967Z,100874.75
2022-11-20T14:22:06.982Z,100868.78
2022-11-20T14:24:33.433Z,100852.34
2022-11-20T14:27:00.134Z,100824.47
2022-11-20T14:29:38.358Z,100829.53
2022-11-20T14:32:05.360Z,100832.91
2022-11-20T14:34:36.546Z,100852.78
2022-11-20T14:37:06.498Z,100855.56
2022-11-20T14:39:37.734Z,100845.22
2022-11-20T14:42:16.259Z,100830.44
2022-11-20T14:44:43.502Z,100820.81
2022-11-20T14:47:13.377Z,100822.50
2022-11-20T14:49:41.681Z,100821.66
2022-11-20T14:52:23.351Z,100820.81
2022-11-20T14:54:55.513Z,100808.56
2022-11-20T14:57:33.657Z,100812.09
2022-11-20T15:00:14.996Z,100810.31
2022-11-20T15:02:46.964Z,100798.16
2022-11-20T15:05:15.416Z,100794.63
2022-11-20T15:07:46.843Z,100792.94
2022-11-20T15:10:19.306Z,100801.69
2022-11-20T15:12:52.328Z,100791.28
2022-11-20T15:15:35.983Z,100780.88
2022-11-20T15:18:02.674Z,100779.19
2022-11-20T15:20:32.685Z,100782.53
2022-11-20T15:22:59.404Z,100785.22
2022-11-20T15:25:26.102Z,100780.03
2022-11-20T15:27:56.802Z,100776.50
2022-11-20T15:30:24.275Z,100771.31
2022-11-20T15:32:50.601Z,100765.16
2022-11-20T15:35:17.506Z,100765.09
2022-11-20T15:37:44.040Z,100757.28
2022-11-20T15:40:10.969Z,100745.19
2022-11-20T15:42:37.592Z,100749.47
2022-11-20T15:45:04.821Z,100748.56
2022-11-20T15:47:34.408Z,100742.50
2022-11-20T15:50:00.849Z,100734.66
2022-11-20T15:52:30.587Z,100735.38
2022-11-20T15:55:08.253Z,100722.28
2022-11-20T15:57:36.013Z,100712.66
2022-11-20T16:00:02.440Z,100707.38
2022-11-20T16:02:28.917Z,100704.66
2022-11-20T16:04:55.216Z,100693.44
2022-11-20T16:07:21.636Z,100687.28
2022-11-20T16:09:48.018Z,100686.38
2022-11-20T16:12:34.293Z,100676.88
2022-11-20T16:15:19.433Z,100668.94
2022-11-20T16:17:45.763Z,100669.75
2022-11-20T16:20:12.666Z,100656.66
2022-11-20T16:22:39.049Z,100661.69
2022-11-20T16:25:06.058Z,100663.38
2022-11-20T16:27:32.393Z,100650.28
2022-11-20T16:29:58.733Z,100642.38
2022-11-20T16:32:25.142Z,100641.44
2022-11-20T16:34:51.517Z,100635.31
2022-11-20T16:37:17.837Z,100632.56
2022-11-20T16:39:44.141Z,100633.28
2022-11-20T16:42:10.429Z,100628.94
2022-11-20T16:44:36.794Z,100624.56
2022-11-20T16:47:03.361Z,100626.22
2022-11-20T16:49:29.809Z,100617.53
2022-11-20T16:51:56.173Z,100614.00
2022-11-20T16:54:23.226Z,100614.00
2022-11-20T16:56:51.695Z,100603.56
2022-11-20T16:59:18.106Z,100600.03
2022-11-20T17:01:44.592Z,100590.47
2022-11-20T17:04:11.098Z,100584.44
2022-11-20T17:06:41.146Z,100594.00
2022-11-20T17:09:10.721Z,100584.44
2022-11-20T17:11:37.816Z,100584.44
2022-11-20T17:14:04.694Z,100576.63
2022-11-20T17:16:31.549Z,100580.88
2022-11-20T17:19:02.907Z,100587.75
2022-11-20T17:21:30.308Z,100580.69
2022-11-20T17:23:56.677Z,100585.91
2022-11-20T17:26:24.139Z,100576.34
2022-11-20T17:28:56.606Z,100584.06
2022-11-20T17:31:23.270Z,100575.31
2022-11-20T17:33:49.633Z,100580.34
2022-11-20T17:36:17.949Z,100581.19
2022-11-20T17:38:44.586Z,100575.13
2022-11-20T17:41:12.441Z,100575.13
2022-11-20T17:43:39.169Z,100577.72
2022-11-20T17:46:11.697Z,100577.00
2022-11-20T17:48:38.465Z,100579.59
2022-11-20T17:51:06.408Z,100585.75
2022-11-20T17:53:35.016Z,100585.75
2022-11-20T17:56:20.012Z,100591.88
2022-11-20T17:58:46.649Z,100592.81
2022-11-20T18:01:13.317Z,100585.00
2022-11-20T18:03:39.657Z,100584.06
2022-11-20T18:06:20.426Z,100593.56
2022-11-20T18:08:48.346Z,100589.28
2022-11-20T18:11:24.147Z,100594.56
2022-11-20T18:14:11.348Z,100590.28
2022-11-20T18:16:43.209Z,100590.28
2022-11-20T18:19:12.854Z,100589.44
2022-11-20T18:21:39.314Z,100589.53
2022-11-20T18:24:06.543Z,100588.69
2022-11-20T18:26:32.898Z,100592.97
2022-11-20T18:29:02.165Z,100599.09
2022-11-20T18:31:32.701Z,100588.78
2022-11-20T18:33:59.007Z,100599.94
2022-11-20T18:36:27.741Z,100599.84
2022-11-20T18:38:57.128Z,100599.09
2022-11-20T18:41:44.313Z,100597.34
2022-11-20T18:44:49.365Z,100604.31
2022-11-20T18:47:19.758Z,100605.25
2022-11-20T18:49:54.797Z,100609.53
2022-11-20T18:52:47.844Z,100612.13
2022-11-20T18:55:14.256Z,100615.66
2022-11-20T18:57:40.955Z,100631.28
2022-11-20T19:00:11.483Z,100626.06
2022-11-20T19:02:42.130Z,100626.91
2022-11-20T19:05:10.942Z,100626.06
2022-11-20T19:07:37.342Z,100624.22
2022-11-20T19:10:05.090Z,100620.03
2022-11-20T19:12:31.810Z,100622.72
2022-11-20T19:14:58.272Z,100619.34
2022-11-20T19:17:24.601Z,100611.53
2022-11-20T19:19:51.115Z,100612.47
2022-11-20T19:22:17.602Z,100614.97
2022-11-20T19:24:43.981Z,100612.47
2022-11-20T19:27:10.387Z,100619.53
2022-11-20T19:29:36.738Z,100614.34
2022-11-20T19:32:04.431Z,100607.47
2022-11-20T19:34:31.507Z,100604.84
2022-11-20T19:36:57.987Z,100595.34
2022-11-20T19:39:24.530Z,100593.59
2022-11-20T19:41:51.027Z,100594.50
2022-11-20T19:44:17.824Z,100592.00
2022-11-20T19:46:44.759Z,100599.06
2022-11-20T19:49:13.458Z,100595.53
2022-11-20T19:51:45.735Z,100607.63
2022-11-20T19:54:12.708Z,100610.97
2022-11-20T19:56:39.158Z,100611.16
2022-11-20T19:59:05.611Z,100602.41
2022-11-20T20:01:32.384Z,100611.97
2022-11-20T20:04:05.161Z,100611.97
2022-11-20T20:06:33.544Z,100609.28
2022-11-20T20:09:12.240Z,100614.50
2022-11-20T20:11:39.969Z,100628.28
2022-11-20T20:14:14.568Z,100628.28
2022-11-20T20:16:42.541Z,100622.88
2022-11-20T20:19:14.129Z,100631.63
2022-11-20T20:21:41.318Z,100636.97
2022-11-20T20:24:07.879Z,100644.72
2022-11-20T20:26:34.338Z,100647.34
2022-11-20T20:29:04.324Z,100652.53
2022-11-20T20:31:32.193Z,100649.09
2022-11-20T20:33:58.552Z,100643.91
2022-11-20T20:36:25.788Z,100647.34
2022-11-20T20:38:55.964Z,100659.31
2022-11-20T20:41:24.684Z,100661.00
2022-11-20T20:44:10.537Z,100661.00
2022-11-20T20:46:38.596Z,100647.06
2022-11-20T20:49:05.120Z,100657.47
2022-11-20T20:51:31.518Z,100661.00
2022-11-20T20:53:57.863Z,100652.44
2022-11-20T20:56:24.242Z,100645.38
2022-11-20T20:58:50.632Z,100655.88
2022-11-20T21:01:18.722Z,100658.50
2022-11-20T21:03:45.538Z,100648.91
2022-11-20T21:06:12.283Z,100647.81
2022-11-20T21:08:41.159Z,100657.31
2022-11-20T21:11:13.786Z,100660.06
2022-11-20T21:13:42.623Z,100660.06
2022-11-20T21:16:09.139Z,100650.59
2022-11-20T21:18:35.570Z,100661.00
2022-11-20T21:21:25.773Z,100674.09
2022-11-20T21:23:53.420Z,100672.25
2022-11-20T21:26:20.882Z,100669.47
2022-11-20T21:28:47.753Z,100664.19
2022-11-20T21:31:16.282Z,100675.44
2022-11-20T21:33:47.559Z,100672.72
2022-11-20T21:36:16.516Z,100674.41
2022-11-20T21:38:43.460Z,100679.81
2022-11-20T21:41:11.051Z,100685.19
2022-11-20T21:43:37.921Z,100675.69
2022-11-20T21:46:05.493Z,100673.06
2022-11-20T21:48:33.272Z,100685.00
2022-11-20T21:51:12.546Z,100686.88
2022-11-20T21:53:39.410Z,100688.69
2022-11-20T21:56:08.577Z,100688.69
2022-11-20T21:58:36.406Z,100696.50
2022-11-20T22:01:17.741Z,100692.06
2022-11-20T22:03:48.809Z,100690.91
2022-11-20T22:06:15.496Z,100698.03
2022-11-20T22:08:41.814Z,100698.94
2022-11-20T22:11:12.013Z,100695.22
2022-11-20T22:13:56.832Z,100706.41
2022-11-20T22:16:23.638Z,100718.75
2022-11-20T22:18:55.022Z,100718.00
2022-11-20T22:21:23.652Z,100726.47
2022-11-20T22:23:50.687Z,100731.84
2022-11-20T22:26:19.596Z,100728.50
2022-11-20T22:28:50.346Z,100734.38
2022-11-20T22:31:17.969Z,100739.66
2022-11-20T22:33:44.493Z,100735.41
2022-11-20T22:36:13.781Z,100742.28
2022-11-20T22:38:40.504Z,100751.75
2022-11-20T22:41:28.464Z,100749.00
2022-11-20T22:44:05.797Z,100748.31
2022-11-20T22:46:34.383Z,100756.38
2022-11-20T22:49:03.639Z,100735.53
2022-11-20T22:51:32.736Z,100745.91
2022-11-20T22:53:59.721Z,100744.13
2022-11-20T22:56:26.130Z,100743.69
2022-11-20T22:58:53.537Z,100748.16
2022-11-20T23:01:22.717Z,100741.09
2022-11-20T23:03:51.710Z,100750.00
2022-11-20T23:06:20.056Z,100753.53
2022-11-20T23:08:47.531Z,100764.94
2022-11-20T23:11:16.561Z,100772.69
2022-11-20T23:13:43.775Z,100779.56
2022-11-20T23:16:18.265Z,100781.22
2022-11-20T23:18:45.068Z,100776.03
2022-11-20T23:21:14.425Z,100777.03
2022-11-20T23:23:41.190Z,100777.72
2022-11-20T23:26:12.260Z,100780.50
2022-11-20T23:28:40.094Z,100789.28
2022-11-20T23:31:07.332Z,100797.19
2022-11-20T23:33:36.457Z,100791.78
2022-11-20T23:36:03.278Z,100796.00
2022-11-20T23:38:29.630Z,100791.47
2022-11-20T23:40:56.227Z,100789.69
2022-11-20T23:43:24.282Z,100784.81
2022-11-20T23:45:56.049Z,100779.72
2022-11-20T23:48:24.258Z,100777.88
2022-11-20T23:50:51.009Z,100783.25
2022-11-20T23:53:18.262Z,100767.81
2022-11-20T23:55:50.382Z,100775.16
2022-11-20T23:58:17.486Z,100767.94
